Tiempo atmosférico en la estación meteorológica de Fuente El Sol, Valladolid (755 m.)

Fecha
DESCASC
Temp. máxima en grados centígrados (hora)
DESCASC
Temp. mínima en grados centígrados (hora)
DESCASC
Temp. media en grados centígrados
DESCASC
Racha de viento máxima en m/sg (hora)
DESCASC
Velocidad máxima media en intervalos de 10 minutos(hora)
DESCASC
Precipitaciones diarias en mm
DESCASC
Precipitaciones de 00:00 a 06:00 en mm
DESCASC
Precipitaciones de 06:00 a 12:00 en mm
DESCASC
Precipitaciones de 12:00 a 18:00 en mm
DESCASC
Precipitaciones de 18:00 a 24:00 en mm
DESCASC
14-12-2017 12.8 (14:20) 8 (00:00) 10.4 16.39 (14:00) 11.11 (05:20) 0 0 0 0 0
13-12-2017 10.1 (16:00) 0.4 (05:40) 5.3 12.22 (16:00) 8.33 (19:40) 0 0 0 0 0
12-12-2017 7.5 (15:50) -1.6 (05:50) 2.9 7.78 (11:20) 6.39 (11:20) 0 0 0 0 0
11-12-2017 10.6 (00:20) 0.1 (23:00) 5.4 29.17 (00:20) 19.44 (00:20) 9.4 8.8 0.4 0.2 0
10-12-2017 11.6 (15:20) 8.8 (00:00) 10.2 26.39 (23:40) 18.61 (23:40) 0 0 0 0 0
09-12-2017 12.8 (14:10) 6.9 (00:00) 9.9 12.22 (21:50) 8.61 (21:50) 0.4 0 0 0.4 0
08-12-2017 11.4 (14:30) 5.1 (00:00) 8.2 9.44 (14:40) 7.5 (14:50) 0.6 0.6 0 0 0
07-12-2017 13.4 (15:40) -4.2 (-00:0) 4.6 5.83 (14:30) 4.17 (16:00) 1.6 0 0 0.2 1.4
06-12-2017 -1 (15:40) -5.8 (-00:0) -3.4 0 (00:10) 0 (00:10) 0.2 0 0 0.2 0
05-12-2017 -0.5 (14:40) -6.7 (-00:0) -3.6 2.5 (21:20) 1.39 (21:10) 0 0 0 0 0
04-12-2017 7.4 (13:30) -6.7 (-00:0) 0.4 5.56 (15:50) 3.89 (16:00) 0 0 0 0 0
03-12-2017 6 (17:00) -6.4 (-00:0) -0.2 8.61 (14:00) 5 (14:10) 0 0 0 0 0
02-12-2017 7.2 (16:30) -5.7 (-00:0) 0.8 6.11 (14:40) 4.44 (09:00) 0 0 0 0 0
01-12-2017 7.3 (13:40) -5.4 (-00:0) 1 13.89 (14:10) 10.56 (12:30) 0.2 0 0 0.2 0
30-11-2017 8 (15:40) -6.6 (-00:0) 0.7 6.67 (22:50) 4.72 (22:50) 0 0 0 0 0
29-11-2017 8.3 (15:40) -2.7 (-00:0) 2.8 2.78 (02:10) 2.22 (01:50) 0 0 0 0 0
28-11-2017 10.9 (15:00) -4.1 (-00:0) 3.4 3.61 (13:50) 2.78 (13:50) 0 0 0 0 0
27-11-2017 11.8 (15:40) -6.7 (-00:0) 2.6 3.33 (21:30) 2.78 (21:30) 0 0 0 0 0
26-11-2017 10.3 (15:40) -4.3 (-00:0) 3 7.78 (14:10) 5.28 (13:50) 0 0 0 0 0
25-11-2017 11.3 (03:20) 1.2 (00:00) 6.3 13.33 (03:40) 7.78 (03:30) 1.6 1.2 0.2 0.2 0
24-11-2017 15.3 (13:40) 9 (00:00) 12.2 13.33 (16:30) 9.44 (16:30) 0.8 0.2 0.4 0 0.2
23-11-2017 17.8 (14:30) 9.7 (00:00) 13.7 16.94 (15:40) 12.78 (15:40) 1.6 0 0 0 1.6
22-11-2017 20.7 (13:10) -2.5 (-00:0) 9.1 13.89 (14:20) 10.83 (14:20) 0 0 0 0 0
21-11-2017 20 (14:40) -4.2 (-00:0) 7.9 5.83 (23:40) 3.89 (21:40) 0 0 0 0 0
20-11-2017 17.9 (16:30) -5.8 (-00:0) 6 3.06 (14:10) 1.94 (22:10) 0 0 0 0 0
19-11-2017 16.1 (15:50) -5.1 (-00:0) 5.5 2.78 (14:00) 1.94 (16:50) 0 0 0 0 0
18-11-2017 18.2 (17:00) -3.5 (-00:0) 7.4 4.17 (14:50) 2.5 (14:50) 0 0 0 0 0
17-11-2017 16.9 (14:30) -2.6 (-00:0) 7.1 3.61 (15:40) 2.22 (16:00) 0 0 0 0 0

Gráficas

Temp. máximas Temp. mínimas Temp. medias Precipitaciones Rachas de viento máximas Velocidades máximas media en intervalos de 10 minutos

Datos horarios

Fecha y hora oficial Temperatura (ºC) Velocidad del viento (km/h) Dirección del viento Racha (km/h) Dirección de racha Precipitación (mm) Presión (hPa) Tendencia (hPa) Humedad (%)
2017-12-16 23:00:00 -0.5 2 Sur 15 Nordeste 0 -- -- 95
2017-12-16 22:00:00 -0.5 3 Oeste 8 Oeste 0 -- -- 95
2017-12-16 21:00:00 0.5 4 Sudoeste 7 Sur 0 -- -- 91
2017-12-16 20:00:00 0.4 0 Calma 10 Sudoeste 0 -- -- 92
2017-12-16 19:00:00 1.9 5 Sudoeste 6 Sudoeste 0 -- -- 86
2017-12-16 18:00:00 3.9 4 Sudoeste 7 Oeste 0 -- -- 77
2017-12-16 17:00:00 8.3 2 Noroeste 15 Noroeste 0 -- -- 56
2017-12-16 16:00:00 7.1 12 Noroeste 18 Noroeste 0 -- -- 61
2017-12-16 15:00:00 7.2 10 Noroeste 16 Noroeste 0 -- -- 62
2017-12-16 14:00:00 8.1 6 Oeste 12 Oeste 0 -- -- 64
2017-12-16 13:00:00 7.4 5 Oeste 10 Oeste 0 -- -- 65
2017-12-16 12:00:00 6.3 7 Noroeste 13 Oeste 0 -- -- 69
2017-12-16 11:00:00 3.2 7 Oeste 11 Oeste 0 -- -- 84
2017-12-16 10:00:00 0.8 8 Sudoeste 13 Sudoeste 0 -- -- 88
2017-12-16 09:00:00 -1.3 9 Sudoeste 13 Sudoeste 0 -- -- 94
2017-12-16 08:00:00 -1.8 12 Sudoeste 13 Sudoeste 0 -- -- 94
2017-12-16 07:00:00 -1.3 12 Sudoeste 13 Sudoeste 0 -- -- 93
2017-12-16 06:00:00 -1.1 8 Sudoeste 12 Sudoeste 0 -- -- 92
2017-12-16 05:00:00 -0.5 8 Sudoeste 14 Sudoeste 0 -- -- 91
2017-12-16 04:00:00 -1.2 7 Sudoeste 12 Sudoeste 0 -- -- 94
2017-12-16 03:00:00 -0.6 10 Sudoeste 12 Sudoeste 0 -- -- 92
2017-12-16 02:00:00 -0.7 3 Sur 12 Oeste 0 -- -- 92
2017-12-16 01:00:00 0.8 5 Sudoeste 9 Oeste 0 -- -- 85
2017-12-16 00:00:00 0.8 11 Oeste 14 Oeste 0 -- -- 87
2017-12-15 23:00:00 0.5 5 Sudoeste 13 Oeste 0 -- -- 89
2017-12-15 22:00:00 1.3 6 Oeste 17 Noroeste 0 -- -- 87
2017-12-15 21:00:00 2.3 9 Oeste 13 Oeste 0 -- -- 87
2017-12-15 20:00:00 2.8 10 Noroeste 19 Noroeste 0 -- -- 88
2017-12-15 19:00:00 4.1 16 Noroeste 21 Noroeste 0 -- -- 83
2017-12-15 18:00:00 5.6 13 Noroeste 25 Noroeste 0 -- -- 81
2017-12-15 17:00:00 7.8 16 Noroeste 26 Noroeste 0 -- -- 72
2017-12-15 16:00:00 8.1 17 Noroeste 25 Noroeste 0 -- -- 71
2017-12-15 15:00:00 8.3 18 Noroeste 24 Noroeste 0 -- -- 74
2017-12-15 14:00:00 7.9 10 Noroeste 28 Noroeste 0.4 -- -- 81
2017-12-15 13:00:00 8.1 19 Norte 32 Oeste 0 -- -- 78
2017-12-15 12:00:00 9.4 23 Oeste 35 Oeste 0 -- -- 81
2017-12-15 11:00:00 9.3 24 Oeste 33 Oeste 0 -- -- 87
2017-12-15 10:00:00 7.4 16 Oeste 28 Oeste 0 -- -- 97
2017-12-15 09:00:00 7 23 Oeste 28 Oeste 1.6 -- -- 97
2017-12-15 08:00:00 6.6 19 Oeste 41 Sudoeste 0 -- -- 94
2017-12-15 07:00:00 6.6 33 Sudoeste 43 Sudoeste 0 -- -- 93
2017-12-15 06:00:00 6 23 Sudoeste 34 Sudoeste 0 -- -- 94
2017-12-15 05:00:00 6.6 24 Sudoeste 35 Sudoeste 0 -- -- 92
2017-12-15 04:00:00 6.9 20 Sudoeste 32 Sudoeste 0 -- -- 89
2017-12-15 03:00:00 7.1 16 Oeste 40 Oeste 0 -- -- 86
2017-12-15 02:00:00 7.9 32 Oeste 45 Oeste 0 -- -- 81
2017-12-15 01:00:00 8.2 28 Oeste 45 Oeste 0 -- -- 83
2017-12-15 00:00:00 9.1 31 Oeste 45 Oeste 0 -- -- 93
2017-12-14 23:00:00 9.8 27 Sudoeste 43 Oeste 0 -- -- 92
2017-12-14 22:00:00 9.7 23 Sudoeste 38 Sudoeste 0 -- -- 96
2017-12-14 21:00:00 9.6 26 Sudoeste 42 Sudoeste 0 -- -- 96
2017-12-14 20:00:00 9.8 27 Sudoeste 58 Sudoeste 0 -- -- 94
2017-12-14 19:00:00 10.2 26 Sudoeste 38 Sudoeste 0 -- -- 92
2017-12-14 18:00:00 10.8 25 Sudoeste 33 Sudoeste 0 -- -- 90
2017-12-14 17:00:00 12.1 24 Sudoeste 38 Sudoeste 0 -- -- 87
2017-12-14 16:00:00 12.3 30 Sudoeste 39 Sudoeste 0 -- -- 86
2017-12-14 15:00:00 12.6 31 Sudoeste 53 Sudoeste 0 -- -- 83
2017-12-14 14:00:00 12.6 40 Sudoeste 59 Sudoeste 0 -- -- 86
2017-12-14 13:00:00 11.9 35 Oeste 50 Sudoeste 0 -- -- 89
2017-12-14 12:00:00 11.6 33 Sudoeste 50 Sudoeste 0 -- -- 90
2017-12-14 11:00:00 10.8 26 Sudoeste 41 Sudoeste 0 -- -- 92
2017-12-14 10:00:00 10.1 30 Sudoeste 45 Sudoeste 0 -- -- 93
2017-12-14 09:00:00 9.3 27 Sudoeste 37 Sudoeste 0 -- -- 96
2017-12-14 08:00:00 9.2 27 Sudoeste 39 Sudoeste 0 -- -- 98
2017-12-14 07:00:00 9 30 Sudoeste 49 Sudoeste 0 -- -- 97
2017-12-14 06:00:00 8.9 37 Sudoeste 51 Sudoeste 0 -- -- 96
2017-12-14 05:00:00 8.9 37 Sudoeste 55 Sudoeste 0 -- -- 96
2017-12-14 04:00:00 8.8 26 Sudoeste 36 Sudoeste 0 -- -- 94
2017-12-14 03:00:00 8.6 30 Sudoeste 43 Sudoeste 0 -- -- 95
2017-12-14 02:00:00 8.6 28 Sudoeste 37 Sudoeste 0 -- -- 93
2017-12-14 01:00:00 8.3 27 Sudoeste 41 Sudoeste 0 -- -- 93
2017-12-14 00:00:00 8 24 Sudoeste 36 Sudoeste 0 -- -- 88
2017-12-13 23:00:00 7.4 23 Sudoeste 31 Sudoeste 0 -- -- 87
2017-12-13 22:00:00 6.4 27 Sudoeste 36 Sudoeste 0 -- -- 88
2017-12-13 21:00:00 6.8 24 Sudoeste 38 Sudoeste 0 -- -- 87
2017-12-13 20:00:00 7 23 Sudoeste 43 Sudoeste 0 -- -- 88
2017-12-13 19:00:00 7.4 22 Sudoeste 31 Sudoeste 0 -- -- 87
2017-12-13 18:00:00 8.1 14 Sudoeste 37 Oeste 0 -- -- 87
2017-12-13 17:00:00 9.5 30 Sudoeste 41 Oeste 0 -- -- 85
2017-12-13 16:00:00 10.1 29 Sudoeste 44 Sudoeste 0 -- -- 83
2017-12-13 15:00:00 9.1 18 Sudoeste 42 Sudoeste 0 -- -- 89
2017-12-13 14:00:00 9.6 29 Sudoeste 44 Sudoeste 0 -- -- 82
2017-12-13 13:00:00 7.8 26 Sudoeste 34 Sudoeste 0 -- -- 79
2017-12-13 12:00:00 6.4 24 Sudoeste 34 Sudoeste 0 -- -- 86
2017-12-13 11:00:00 5.9 18 Sudoeste 31 Sur 0 -- -- 82
2017-12-13 10:00:00 3.5 18 Sudoeste 27 Sudoeste 0 -- -- 84
2017-12-13 09:00:00 1.7 4 Sudoeste 12 Sur 0 -- -- 88
2017-12-13 08:00:00 1.4 10 Sur 22 Sur 0 -- -- 89
2017-12-13 07:00:00 1.2 12 Sur 21 Sur 0 -- -- 90
2017-12-13 06:00:00 0.5 15 Sudoeste 19 Sudoeste 0 -- -- 92
2017-12-13 05:00:00 0.6 12 Sudoeste 18 Sudoeste 0 -- -- 91
2017-12-13 04:00:00 1 9 Sudoeste 19 Sudoeste 0 -- -- 91
2017-12-13 03:00:00 2.4 15 Sudoeste 22 Sur 0 -- -- 85
2017-12-13 02:00:00 1.4 15 Sur 20 Sur 0 -- -- 90
2017-12-13 01:00:00 1 15 Sur 20 Sudoeste 0 -- -- 91
2017-12-13 00:00:00 1 11 Sudoeste 20 Sudoeste 0 -- -- 92
2017-12-12 23:00:00 1.5 17 Sudoeste 24 Sudoeste 0 -- -- 90
2017-12-12 22:00:00 1.2 12 Sudoeste 19 Sudoeste 0 -- -- 91
2017-12-12 21:00:00 2.3 13 Sudoeste 20 Sudoeste 0 -- -- 88
2017-12-12 20:00:00 2.1 12 Sur 15 Sur 0 -- -- 90
2017-12-12 19:00:00 2.4 8 Sur 10 Sudoeste 0 -- -- 90
2017-12-12 18:00:00 4.1 6 Sudoeste 12 Sudoeste 0 -- -- 79
2017-12-12 17:00:00 6.7 9 Sudoeste 19 Oeste 0 -- -- 73
2017-12-12 16:00:00 7.4 14 Oeste 21 Oeste 0 -- -- 67
2017-12-12 15:00:00 7 13 Oeste 21 Oeste 0 -- -- 68
2017-12-12 14:00:00 5.9 16 Oeste 26 Oeste 0 -- -- 76
2017-12-12 13:00:00 4.9 20 Oeste 27 Sudoeste 0 -- -- 77
2017-12-12 12:00:00 3.7 21 Sudoeste 28 Sudoeste 0 -- -- 82
2017-12-12 11:00:00 2.6 18 Sudoeste 26 Sudoeste 0 -- -- 84
2017-12-12 10:00:00 1.1 18 Sudoeste 24 Sudoeste 0 -- -- 87
2017-12-12 09:00:00 -0.4 15 Sudoeste 20 Sudoeste 0 -- -- 91
2017-12-12 08:00:00 -0.9 15 Sudoeste 24 Sudoeste 0 -- -- 92
2017-12-12 07:00:00 -1.2 14 Sudoeste 19 Sudoeste 0 -- -- 93
2017-12-12 06:00:00 -1.6 9 Sur 14 Sudoeste 0 -- -- 94
2017-12-12 05:00:00 -1.2 10 Sudoeste 13 Sudoeste 0 -- -- 93
2017-12-12 04:00:00 -1.3 8 Sudoeste 13 Sudoeste 0 -- -- 93
2017-12-12 03:00:00 -0.6 8 Sudoeste 12 Sudoeste 0 -- -- 91
2017-12-12 02:00:00 -1 6 Sur 8 Sudeste 0 -- -- 93
2017-12-12 01:00:00 0 3 Noroeste 15 Oeste 0 -- -- 87
2017-12-12 00:00:00 0.2 12 Oeste 15 Oeste 0 -- -- 88
2017-12-11 23:00:00 0.1 8 Oeste 22 Oeste 0 -- -- 89
2017-12-11 22:00:00 1.2 11 Noroeste 30 Noroeste 0 -- -- 83
2017-12-11 21:00:00 3.1 22 Noroeste 36 Noroeste 0 -- -- 77
2017-12-11 20:00:00 4.1 23 Noroeste 36 Oeste 0 -- -- 79
2017-12-11 19:00:00 4.2 18 Oeste 29 Oeste 0 -- -- 88
2017-12-11 18:00:00 4.7 19 Oeste 32 Oeste 0 -- -- 90
2017-12-11 17:00:00 5.3 24 Oeste 44 Oeste 0 -- -- 87
2017-12-11 16:00:00 5.9 31 Oeste 50 Sudoeste 0.2 -- -- 84
2017-12-11 15:00:00 6.1 32 Oeste 44 Sudoeste 0 -- -- 79
2017-12-11 14:00:00 6.4 37 Sudoeste 50 Sudoeste 0 -- -- 79
2017-12-11 13:00:00 6 36 Sudoeste 49 Sudoeste 0 -- -- 79
2017-12-11 12:00:00 6 37 Sudoeste 53 Sudoeste 0 -- -- 81
2017-12-11 11:00:00 5.2 37 Sudoeste 53 Sudoeste 0 -- -- 85
2017-12-11 10:00:00 4 29 Sudoeste 39 Sudoeste 0 -- -- 89
2017-12-11 09:00:00 3.9 23 Sudoeste 48 Sudoeste 0 -- -- 92
2017-12-11 08:00:00 4.5 33 Oeste 62 Sudoeste 0.4 -- -- 92
2017-12-11 07:00:00 5.3 37 Sudoeste 52 Sudoeste 0 -- -- 85
2017-12-11 06:00:00 5.2 40 Sudoeste 56 Sudoeste 0 -- -- 89
2017-12-11 05:00:00 5.2 35 Sudoeste 62 Sudoeste 0 -- -- 89
2017-12-11 04:00:00 5.6 35 Sudoeste 53 Sudoeste 1.8 -- -- 89
2017-12-11 03:00:00 5.7 37 Sudoeste 54 Sudoeste 2.8 -- -- 92
2017-12-11 02:00:00 5.3 45 Sudoeste 91 Oeste 4 -- -- 98
2017-12-11 01:00:00 10.5 57 Sudoeste 105 Sur 0.2 -- -- 82
2017-12-11 00:00:00 10.4 66 Sudoeste 95 Sudoeste 0 -- -- 84
2017-12-10 23:00:00 10.4 61 Sudoeste 88 Sudoeste 0 -- -- 84
2017-12-10 22:00:00 10.6 56 Sudoeste 89 Sur 0 -- -- 79
2017-12-10 21:00:00 10.5 55 Sur 77 Sur 0 -- -- 82
2017-12-10 20:00:00 10.4 52 Sur 77 Sur 0 -- -- 80
2017-12-10 19:00:00 10.5 41 Sudoeste 70 Sudoeste 0 -- -- 82
2017-12-10 18:00:00 10.6 43 Sudoeste 62 Sudoeste 0 -- -- 86
2017-12-10 17:00:00 11 38 Sudoeste 59 Sudoeste 0 -- -- 87
2017-12-10 16:00:00 11.4 38 Sudoeste 64 Sudoeste 0 -- -- 84
2017-12-10 15:00:00 11.2 45 Sudoeste 68 Sudoeste 0 -- -- 84
2017-12-10 14:00:00 10.5 46 Sudoeste 62 Sudoeste 0 -- -- 85
2017-12-10 13:00:00 10.1 46 Sudoeste 60 Sudoeste 0 -- -- 86
2017-12-10 12:00:00 10.1 33 Sudoeste 54 Sudoeste 0 -- -- 85
2017-12-10 11:00:00 9.8 30 Sudoeste 49 Sudoeste 0 -- -- 85
2017-12-10 10:00:00 9.4 41 Sudoeste 55 Sudoeste 0 -- -- 84
2017-12-10 09:00:00 9.1 31 Sudoeste 51 Sudoeste 0 -- -- 84
2017-12-10 08:00:00 9.3 33 Sudoeste 50 Sudoeste 0 -- -- 86
2017-12-10 07:00:00 9.5 30 Sudoeste 39 Sudoeste 0 -- -- 87
2017-12-10 06:00:00 9.3 27 Sudoeste 40 Sudoeste 0 -- -- 87
2017-12-10 05:00:00 9.2 23 Sudoeste 36 Sudoeste 0 -- -- 90
2017-12-10 04:00:00 9.1 25 Sudoeste 35 Sudoeste 0 -- -- 91
2017-12-10 03:00:00 8.9 24 Sudoeste 31 Sudoeste 0 -- -- 93
2017-12-10 02:00:00 9 22 Sudoeste 40 Sudoeste 0 -- -- 93
2017-12-10 01:00:00 10.1 28 Sudoeste 39 Sudoeste 0 -- -- 90
2017-12-10 00:00:00 10.1 31 Sudoeste 40 Sudoeste 0 -- -- 93
2017-12-09 23:00:00 9.9 24 Sudoeste 39 Sudoeste 0 -- -- 94
2017-12-09 22:00:00 10.3 31 Sudoeste 44 Sudoeste 0 -- -- 89
2017-12-09 21:00:00 10 27 Sudoeste 40 Sudoeste 0 -- -- 89
2017-12-09 20:00:00 10.6 27 Sudoeste 42 Oeste 0 -- -- 88
2017-12-09 19:00:00 10.9 31 Sudoeste 41 Sudoeste 0 -- -- 86
2017-12-09 18:00:00 10.8 25 Sudoeste 37 Sudoeste 0 -- -- 89
2017-12-09 17:00:00 11.2 23 Sudoeste 35 Oeste 0.2 -- -- 89
2017-12-09 16:00:00 11.7 25 Oeste 41 Oeste 0.2 -- -- 86
2017-12-09 15:00:00 12.4 27 Oeste 38 Oeste 0 -- -- 82
2017-12-09 14:00:00 12.4 27 Oeste 37 Oeste 0 -- -- 83
2017-12-09 13:00:00 11.7 23 Oeste 31 Oeste 0 -- -- 86
2017-12-09 12:00:00 11 14 Oeste 26 Oeste 0 -- -- 92
2017-12-09 11:00:00 10 19 Oeste 24 Oeste 0 -- -- 95
2017-12-09 10:00:00 9.1 9 Oeste 13 Sudoeste 0 -- -- 99
2017-12-09 09:00:00 7.1 0 Calma 3 Sudoeste 0 -- -- 100
2017-12-09 08:00:00 7 2 Noroeste 8 Noroeste 0 -- -- 100
2017-12-09 07:00:00 7.1 0 Calma 2 Sur 0 -- -- 100
2017-12-09 06:00:00 7.2 0 Calma 4 Este 0 -- -- 100
2017-12-09 05:00:00 7.3 2 Este 9 Nordeste 0 -- -- 100
2017-12-09 04:00:00 7.5 6 Norte 13 Norte 0 -- -- 100
2017-12-09 03:00:00 8.2 9 Norte 19 Oeste 0 -- -- 99
2017-12-09 02:00:00 9.4 15 Oeste 21 Oeste 0 -- -- 97
2017-12-09 01:00:00 9.7 15 Oeste 24 Oeste 0 -- -- 97
2017-12-09 00:00:00 9.9 18 Oeste 25 Oeste 0 -- -- 97
2017-12-08 23:00:00 10.1 17 Oeste 29 Oeste 0 -- -- 97
2017-12-08 22:00:00 10.2 13 Oeste 20 Oeste 0 -- -- 97
2017-12-08 21:00:00 10.3 14 Oeste 22 Oeste 0 -- -- 97
2017-12-08 20:00:00 10.4 15 Sudoeste 20 Sudoeste 0 -- -- 96
2017-12-08 19:00:00 10.4 15 Sudoeste 21 Oeste 0 -- -- 95
2017-12-08 18:00:00 10.5 16 Oeste 24 Sudoeste 0 -- -- 93
2017-12-08 17:00:00 10.7 21 Oeste 28 Oeste 0 -- -- 92
2017-12-08 16:00:00 10.9 22 Oeste 32 Oeste 0 -- -- 93
2017-12-08 15:00:00 11 26 Oeste 34 Oeste 0 -- -- 90
2017-12-08 14:00:00 11.1 23 Oeste 33 Oeste 0 -- -- 90
2017-12-08 13:00:00 10.5 24 Sudoeste 32 Sudoeste 0 -- -- 90
2017-12-08 12:00:00 10.1 19 Sudoeste 32 Sudoeste 0 -- -- 91
2017-12-08 11:00:00 8.9 22 Sudoeste 33 Sudoeste 0 -- -- 92
2017-12-08 10:00:00 8.2 23 Sudoeste 30 Sudoeste 0 -- -- 91
2017-12-08 09:00:00 6.8 14 Sudoeste 23 Sudoeste 0 -- -- 86
2017-12-08 08:00:00 6.6 16 Sudoeste 24 Sudoeste 0 -- -- 83
2017-12-08 07:00:00 6.9 16 Sudoeste 21 Sudoeste 0 -- -- 78
2017-12-08 06:00:00 6.8 12 Sudoeste 24 Sudoeste 0 -- -- 81
2017-12-08 05:00:00 6.5 16 Sudoeste 24 Sudoeste 0 -- -- 83
2017-12-08 04:00:00 6.1 10 Sudoeste 26 Sudoeste 0 -- -- 83
2017-12-08 03:00:00 6.1 12 Sudoeste 19 Sudoeste 0 -- -- 79
2017-12-08 02:00:00 5.4 10 Sur 13 Sur 0 -- -- 92
2017-12-08 01:00:00 5.2 5 Sudoeste 9 Sudeste 0.6 -- -- 92
2017-12-08 00:00:00 5.3 3 Sur 8 Sudoeste 1.2 -- -- 88
2017-12-07 23:00:00 6.6 6 Sudoeste 13 Sudoeste 0.2 -- -- 75
2017-12-07 22:00:00 7.9 6 Sudoeste 13 Sudoeste 0 -- -- 52
2017-12-07 21:00:00 7.6 4 Sudoeste 17 Oeste 0 -- -- 52
2017-12-07 20:00:00 8.2 10 Sudoeste 18 Sudoeste 0 -- -- 52
2017-12-07 19:00:00 7.9 5 Sudoeste 9 Sudoeste 0 -- -- 54
2017-12-07 18:00:00 9.3 7 Oeste 17 Oeste 0 -- -- 49
2017-12-07 17:00:00 11.3 13 Oeste 20 Sudoeste 0 -- -- 38
2017-12-07 16:00:00 13.2 15 Oeste 20 Oeste 0 -- -- 32
2017-12-07 15:00:00 12.7 12 Sudoeste 21 Oeste 0.2 -- -- 35
2017-12-07 14:00:00 12 10 Sudoeste 16 Sur 0 -- -- 39
2017-12-07 13:00:00 10.4 5 Sudoeste 9 Sur 0 -- -- 56
2017-12-07 12:00:00 6.2 2 Sudoeste 10 Sur 0 -- -- 93
2017-12-07 11:00:00 2.8 2 Sudeste 6 Sudeste 0 -- -- 90
2017-12-07 10:00:00 -0.5 0 Calma -- -- 0 -- -- 99
2017-12-07 09:00:00 -2.1 0 Calma -- -- 0 -- -- 100
2017-12-07 08:00:00 -2.4 0 Calma -- -- 0 -- -- 100
2017-12-07 07:00:00 -2.7 0 Calma -- -- 0 -- -- 100
2017-12-07 06:00:00 -2.8 0 Calma -- -- 0 -- -- 100
2017-12-07 05:00:00 -2.9 0 Calma -- -- 0 -- -- 99
2017-12-07 04:00:00 -3.2 0 Calma -- -- 0 -- -- 99
2017-12-07 03:00:00 -3.5 0 Calma -- -- 0 -- -- 99
2017-12-07 02:00:00 -3.7 0 Calma -- -- 0 -- -- 99
2017-12-07 01:00:00 -4 0 Calma -- -- 0 -- -- 99
2017-12-07 00:00:00 -4.2 0 Calma -- -- 0 -- -- 98
2017-12-06 23:00:00 -4 0 Calma -- -- 0 -- -- 99
2017-12-06 22:00:00 -3.4 0 Calma -- -- 0 -- -- 99
2017-12-06 21:00:00 -2.6 0 Calma -- -- 0 -- -- 100
2017-12-06 20:00:00 -2.1 0 Calma -- -- 0 -- -- 100
2017-12-06 19:00:00 -2 0 Calma -- -- 0 -- -- 100
2017-12-06 18:00:00 -1.8 0 Calma -- -- 0 -- -- 100
2017-12-06 17:00:00 -1.4 0 Calma -- -- 0 -- -- 100
2017-12-06 16:00:00 -1.2 0 Calma -- -- 0 -- -- 99
2017-12-06 15:00:00 -1.6 0 Calma -- -- 0 -- -- 98
2017-12-06 14:00:00 -1.9 0 Calma -- -- 0 -- -- 98
2017-12-06 13:00:00 -2.9 0 Calma -- -- 0.2 -- -- 97
2017-12-06 12:00:00 -3.6 0 Calma -- -- 0 -- -- 97
2017-12-06 11:00:00 -4.7 0 Calma -- -- 0 -- -- 97
2017-12-06 10:00:00 -5.2 0 Calma -- -- 0 -- -- 97
2017-12-06 09:00:00 -5.8 0 Calma -- -- 0 -- -- 97
2017-12-06 08:00:00 -5.6 0 Calma -- -- 0 -- -- 97
2017-12-06 07:00:00 -5.3 0 Calma -- -- 0 -- -- 97
2017-12-06 06:00:00 -4.9 0 Calma -- -- 0 -- -- 98
2017-12-06 05:00:00 -4.6 0 Calma -- -- 0 -- -- 98
2017-12-06 04:00:00 -4.5 0 Calma -- -- 0 -- -- 98
2017-12-06 03:00:00 -4.4 0 Calma -- -- 0 -- -- 98
2017-12-06 02:00:00 -4.3 0 Calma -- -- 0 -- -- 98
2017-12-06 01:00:00 -3.9 0 Calma -- -- 0 -- -- 98
2017-12-06 00:00:00 -3.8 0 Calma -- -- 0 -- -- 98
2017-12-05 23:00:00 -3.8 0 Calma -- -- 0 -- -- 98
2017-12-05 22:00:00 -2 0 Calma 9 Sudeste 0 -- -- 100
2017-12-05 21:00:00 -2.3 4 Este 8 Este 0 -- -- 100
2017-12-05 20:00:00 -2 3 Este 5 Este 0 -- -- 100
2017-12-05 19:00:00 -1.5 0 Calma 6 Este 0 -- -- 100
2017-12-05 18:00:00 -1.2 0 Calma 6 Este 0 -- -- 100
2017-12-05 17:00:00 -0.8 2 Sudeste 6 Sudeste 0 -- -- 99
2017-12-05 16:00:00 -0.9 0 Calma 6 Oeste 0 -- -- 99
2017-12-05 15:00:00 -0.5 0 Calma 7 Norte 0 -- -- 98
2017-12-05 14:00:00 -0.9 3 Oeste 6 Noroeste 0 -- -- 97
2017-12-05 13:00:00 -1.3 2 Oeste 5 Oeste 0 -- -- 97
2017-12-05 12:00:00 -2.1 0 Calma -- -- 0 -- -- 97
2017-12-05 11:00:00 -3.2 0 Calma -- -- 0 -- -- 97
2017-12-05 10:00:00 -3.7 0 Calma -- -- 0 -- -- 97
2017-12-05 09:00:00 -4.1 0 Calma -- -- 0 -- -- 98
2017-12-05 08:00:00 -4.1 0 Calma -- -- 0 -- -- 98
2017-12-05 07:00:00 -4.2 0 Calma -- -- 0 -- -- 98
2017-12-05 06:00:00 -4.6 0 Calma -- -- 0 -- -- 98
2017-12-05 05:00:00 -4.8 0 Calma -- -- 0 -- -- 98
2017-12-05 04:00:00 -5.5 0 Calma -- -- 0 -- -- 97
2017-12-05 03:00:00 -6.2 0 Calma 0 Calma 0 -- -- 97
2017-12-05 02:00:00 -6.3 0 Calma 3 Sur 0 -- -- 96
2017-12-05 01:00:00 -5.8 2 Sur 4 Sudoeste 0 -- -- 96
2017-12-05 00:00:00 -4.8 3 Sur 5 Sur 0 -- -- 96
2017-12-04 23:00:00 -4.4 0 Calma 3 Noroeste 0 -- -- 96
2017-12-04 22:00:00 -3.5 2 Oeste 4 Oeste 0 -- -- 96
2017-12-04 21:00:00 -1.9 0 Calma 6 Sudeste 0 -- -- 92
2017-12-04 20:00:00 -1 3 Sur 6 Sur 0 -- -- 91
2017-12-04 19:00:00 0.9 4 Sudeste 6 Sur 0 -- -- 86
2017-12-04 18:00:00 4 5 Este 16 Este 0 -- -- 78
2017-12-04 17:00:00 6.8 8 Este 19 Este 0 -- -- 68
2017-12-04 16:00:00 7 14 Nordeste 20 Nordeste 0 -- -- 67
2017-12-04 15:00:00 6.5 13 Nordeste 17 Nordeste 0 -- -- 69
2017-12-04 14:00:00 6.6 8 Nordeste 16 Nordeste 0 -- -- 68
2017-12-04 13:00:00 6.8 4 Nordeste 9 Noroeste 0 -- -- 68
2017-12-04 12:00:00 3.8 4 Norte 6 Norte 0 -- -- 76
2017-12-04 11:00:00 1.6 2 Norte 6 Nordeste 0 -- -- 82
2017-12-04 10:00:00 -1.5 0 Calma 6 Sudeste 0 -- -- 90
2017-12-04 09:00:00 -3.9 3 Norte 6 Norte 0 -- -- 94
2017-12-04 08:00:00 -5.9 0 Calma 3 Sur 0 -- -- 96
2017-12-04 07:00:00 -6.5 0 Calma 9 Sudeste 0 -- -- 94
2017-12-04 06:00:00 -5.6 5 Sudeste 8 Sudeste 0 -- -- 96
2017-12-04 05:00:00 -6.6 2 Sudeste 3 Sudeste 0 -- -- 95
2017-12-04 04:00:00 -6.4 0 Calma 7 Sudeste 0 -- -- 95
2017-12-04 03:00:00 -5.3 2 Sudeste 8 Sur 0 -- -- 95
2017-12-04 02:00:00 -5.5 2 Sudeste 6 Sudeste 0 -- -- 93
2017-12-04 01:00:00 -4.7 2 Sudeste 7 Sudeste 0 -- -- 94
2017-12-04 00:00:00 -3.6 2 Sur 5 Sudoeste 0 -- -- 95
2017-12-03 23:00:00 -3.5 5 Sudoeste 12 Sudoeste 0 -- -- 93
2017-12-03 22:00:00 -3.1 4 Sudoeste 9 Sur 0 -- -- 94
2017-12-03 21:00:00 -1.6 0 Calma 4 Sudoeste 0 -- -- 88
2017-12-03 20:00:00 0.2 0 Calma 12 Sur 0 -- -- 84
2017-12-03 19:00:00 1.5 4 Norte 7 Oeste 0 -- -- 81
2017-12-03 18:00:00 2.1 5 Noroeste 9 Noroeste 0 -- -- 73
2017-12-03 17:00:00 6 5 Norte 18 Nordeste 0 -- -- 61
2017-12-03 16:00:00 5.3 12 Norte 22 Norte 0 -- -- 61
2017-12-03 15:00:00 5.2 12 Norte 30 Nordeste 0 -- -- 61
2017-12-03 14:00:00 5.5 16 Nordeste 31 Norte 0 -- -- 60
2017-12-03 13:00:00 5.1 12 Nordeste 18 Nordeste 0 -- -- 65
2017-12-03 12:00:00 4.5 7 Norte 10 Norte 0 -- -- 70
2017-12-03 11:00:00 5.2 0 Calma 8 Oeste 0 -- -- 67
2017-12-03 10:00:00 1.1 5 Oeste 9 Oeste 0 -- -- 82
2017-12-03 09:00:00 -2.6 2 Sudoeste 10 Sur 0 -- -- 95
2017-12-03 08:00:00 -5.5 3 Sur 6 Sudeste 0 -- -- 95
2017-12-03 07:00:00 -5.9 3 Sudeste 8 Este 0 -- -- 97
2017-12-03 06:00:00 -5.8 4 Oeste 5 Oeste 0 -- -- 96
2017-12-03 05:00:00 -5 4 Sudoeste 8 Sudoeste 0 -- -- 96
2017-12-03 04:00:00 -3.9 3 Oeste 5 Sudoeste 0 -- -- 96
2017-12-03 03:00:00 -2.6 3 Sudoeste 9 Norte 0 -- -- 91
2017-12-03 02:00:00 -1.1 3 Sudeste 11 Nordeste 0 -- -- 91
2017-12-03 01:00:00 0.2 7 Nordeste 12 Nordeste 0 -- -- 87
2017-12-03 00:00:00 -0.9 7 Norte 10 Norte 0 -- -- 90
2017-12-02 23:00:00 0.3 7 Noroeste 9 Noroeste 0 -- -- 85
2017-12-02 22:00:00 0.4 2 Nordeste 6 Nordeste 0 -- -- 85
2017-12-02 21:00:00 1.6 5 Nordeste 14 Norte 0 -- -- 79
2017-12-02 20:00:00 -0.9 8 Noroeste 10 Noroeste 0 -- -- 85
2017-12-02 19:00:00 0 8 Oeste 8 Oeste 0 -- -- 81
2017-12-02 18:00:00 2.8 3 Noroeste 12 Noroeste 0 -- -- 71
2017-12-02 17:00:00 6.3 11 Noroeste 15 Noroeste 0 -- -- 57
2017-12-02 16:00:00 6.7 8 Noroeste 18 Noroeste 0 -- -- 57
2017-12-02 15:00:00 5.7 10 Noroeste 22 Norte 0 -- -- 64
2017-12-02 14:00:00 6 7 Norte 13 Noroeste 0 -- -- 61
2017-12-02 13:00:00 5.4 8 Noroeste 13 Noroeste 0 -- -- 62
2017-12-02 12:00:00 4.2 6 Noroeste 14 Oeste 0 -- -- 66
2017-12-02 11:00:00 0.8 9 Oeste 15 Sudoeste 0 -- -- 80
2017-12-02 10:00:00 -2.2 14 Sudoeste 19 Sudoeste 0 -- -- 88
2017-12-02 09:00:00 -4.9 16 Sudoeste 18 Sudoeste 0 -- -- 92
2017-12-02 08:00:00 -5.1 13 Sudoeste 17 Sudoeste 0 -- -- 93
2017-12-02 07:00:00 -5.2 13 Sudoeste 17 Sudoeste 0 -- -- 93
2017-12-02 06:00:00 -5.1 13 Sudoeste 15 Sudoeste 0 -- -- 95
2017-12-02 05:00:00 -5.1 11 Sudoeste 15 Sudoeste 0 -- -- 94
2017-12-02 04:00:00 -5 10 Sudoeste 13 Sudoeste 0 -- -- 96
2017-12-02 03:00:00 -5.4 5 Sudoeste 9 Sudoeste -- -- -- 96
2017-12-02 02:00:00 -5.5 8 Sudoeste 13 Sudoeste 0 -- -- 93
2017-12-02 01:00:00 -5.3 5 Sudoeste 10 Sur 0 -- -- 95
2017-12-02 00:00:00 -5.4 4 Sur 8 Sur 0 -- -- 95
2017-12-01 23:00:00 -4.8 0 Calma -- -- 0 -- -- 95
2017-12-01 22:00:00 -4.1 2 Noroeste 4 Oeste 0 -- -- 95
2017-12-01 21:00:00 -2.3 3 Norte 9 Noroeste 0 -- -- 91
2017-12-01 20:00:00 -0.5 6 Norte 10 Noroeste 0 -- -- 84
2017-12-01 19:00:00 1.4 7 Nordeste 13 Norte 0 -- -- 82
2017-12-01 18:00:00 1.5 6 Norte 22 Norte 0 -- -- 87
2017-12-01 17:00:00 3 13 Norte 29 Norte 0 -- -- 81
2017-12-01 16:00:00 4.5 11 Norte 25 Norte 0 -- -- 81
2017-12-01 15:00:00 4 14 Nordeste 50 Noroeste 0.2 -- -- 84
2017-12-01 14:00:00 6.3 30 Noroeste 42 Noroeste 0 -- -- 73
2017-12-01 13:00:00 6.8 35 Oeste 49 Oeste 0 -- -- 71
2017-12-01 12:00:00 4.5 29 Oeste 44 Oeste 0 -- -- 81
2017-12-01 11:00:00 1.5 32 Sudoeste 43 Sudoeste 0 -- -- 87
2017-12-01 10:00:00 0.2 29 Sudoeste 40 Sudoeste 0 -- -- 89
2017-12-01 09:00:00 -1.7 27 Sudoeste 35 Sudoeste 0 -- -- 92
2017-12-01 08:00:00 -2.1 25 Sudoeste 35 Sudoeste 0 -- -- 93
2017-12-01 07:00:00 -2.5 23 Sudoeste 30 Sudoeste 0 -- -- 93
2017-12-01 06:00:00 -2.4 17 Sudoeste 28 Sudoeste 0 -- -- 90
2017-12-01 05:00:00 -2.2 21 Sudoeste 27 Sudoeste 0 -- -- 89
2017-12-01 04:00:00 -2 17 Sudoeste 26 Sudoeste 0 -- -- 87
2017-12-01 03:00:00 -2.2 17 Sudoeste 21 Sudoeste 0 -- -- 88
2017-12-01 02:00:00 -2.3 12 Sudoeste 19 Sudoeste 0 -- -- 88
2017-12-01 01:00:00 -2 15 Sudoeste 22 Sudoeste 0 -- -- 88
2017-12-01 00:00:00 -1.4 13 Sudoeste 20 Sudoeste 0 -- -- 85
2017-11-30 23:00:00 -1.2 13 Sudoeste 24 Sudoeste 0 -- -- 84
2017-11-30 22:00:00 -1.4 11 Sudoeste 15 Sudoeste 0 -- -- 81
2017-11-30 21:00:00 -1.2 6 Sudoeste 11 Sudoeste 0 -- -- 79
2017-11-30 20:00:00 0.1 9 Sudoeste 13 Sur 0 -- -- 75
2017-11-30 19:00:00 0.1 4 Sudoeste 6 Sudoeste 0 -- -- 77
2017-11-30 18:00:00 3.6 5 Sudoeste 7 Oeste 0 -- -- 64
2017-11-30 17:00:00 6.9 6 Noroeste 16 Noroeste 0 -- -- 53
2017-11-30 16:00:00 7.3 4 Noroeste 13 Noroeste 0 -- -- 55
2017-11-30 15:00:00 7.9 6 Noroeste 15 Noroeste 0 -- -- 53
2017-11-30 14:00:00 7.5 3 Noroeste 12 Norte 0 -- -- 59
2017-11-30 13:00:00 5 5 Norte 13 Noroeste 0 -- -- 67
2017-11-30 12:00:00 6.8 0 Calma 5 Noroeste 0 -- -- 65
2017-11-30 11:00:00 3.6 2 Oeste 4 Oeste 0 -- -- 76
2017-11-30 10:00:00 -0.7 2 Sudoeste 5 Sur 0 -- -- 87
2017-11-30 09:00:00 -4.4 0 Calma 6 Sudoeste 0 -- -- 92
2017-11-30 08:00:00 -6.6 4 Sudoeste 5 Oeste 0 -- -- 97
2017-11-30 07:00:00 -5.8 3 Sudoeste 8 Sudeste 0 -- -- 96
2017-11-30 06:00:00 -4.8 5 Sudeste 10 Noroeste 0 -- -- 96
2017-11-30 05:00:00 -4.4 3 Noroeste 5 Noroeste 0 -- -- 98
2017-11-30 04:00:00 -3.4 4 Noroeste 8 Norte 0 -- -- 98
2017-11-30 03:00:00 -2.6 7 Norte 8 Norte 0 -- -- 99
2017-11-30 02:00:00 -3.9 0 Calma 5 Oeste 0 -- -- 98
2017-11-30 01:00:00 -2.8 0 Calma 4 Nordeste 0 -- -- 97
2017-11-30 00:00:00 -0.7 4 Norte 8 Nordeste 0 -- -- 91
2017-11-29 23:00:00 0.4 6 Este 9 Este 0 -- -- 89
2017-11-29 22:00:00 -0.2 4 Este 8 Nordeste 0 -- -- 96
2017-11-29 21:00:00 1.2 6 Nordeste 8 Nordeste 0 -- -- 93
2017-11-29 20:00:00 0.1 0 Calma 7 Oeste 0 -- -- 94
2017-11-29 19:00:00 1.4 2 Sudoeste 4 Oeste 0 -- -- 92
2017-11-29 18:00:00 4.2 3 Oeste 4 Oeste 0 -- -- 81
2017-11-29 17:00:00 7.3 3 Noroeste 8 Noroeste 0 -- -- 69
2017-11-29 16:00:00 7.6 0 Calma 8 Noroeste 0 -- -- 68
2017-11-29 15:00:00 6.5 3 Noroeste 9 Noroeste 0 -- -- 80
2017-11-29 14:00:00 3.1 5 Norte 9 Noroeste 0 -- -- 94
2017-11-29 13:00:00 1.5 3 Noroeste 7 Norte 0 -- -- 98
2017-11-29 12:00:00 0.4 3 Noroeste 5 Noroeste 0 -- -- 98
2017-11-29 11:00:00 -0.5 0 Calma -- -- 0 -- -- 99
2017-11-29 10:00:00 -1.7 0 Calma -- -- 0 -- -- 99
2017-11-29 09:00:00 -2.3 0 Calma -- -- 0 -- -- 99
2017-11-29 08:00:00 -2.4 0 Calma -- -- 0 -- -- 99
2017-11-29 07:00:00 -2.1 0 Calma -- -- 0 -- -- 99
2017-11-29 06:00:00 -2.4 0 Calma -- -- 0 -- -- 99
2017-11-29 05:00:00 -2.4 0 Calma -- -- 0 -- -- 99
2017-11-29 04:00:00 -2.4 0 Calma 8 Noroeste 0 -- -- 99
2017-11-29 03:00:00 -2.6 4 Noroeste 10 Oeste 0 -- -- 99
2017-11-29 02:00:00 -2.2 8 Oeste 10 Oeste 0 -- -- 99
2017-11-29 01:00:00 -1.8 3 Sudoeste 6 Noroeste 0 -- -- 98
2017-11-29 00:00:00 -1.5 4 Noroeste 6 Noroeste 0 -- -- 97
2017-11-28 23:00:00 0 0 Calma 5 Norte 0 -- -- 96
2017-11-28 22:00:00 1 4 Norte 9 Norte 0 -- -- 94
2017-11-28 21:00:00 2.5 2 Nordeste 4 Sudoeste 0 -- -- 91
2017-11-28 20:00:00 3.8 0 Calma 10 Norte 0 -- -- 88
2017-11-28 19:00:00 4.6 6 Norte 8 Norte 0 -- -- 85
2017-11-28 18:00:00 7.7 4 Nordeste 6 Norte 0 -- -- 75
2017-11-28 17:00:00 9.6 0 Calma 6 Oeste 0 -- -- 68
2017-11-28 16:00:00 10.5 3 Noroeste 8 Oeste 0 -- -- 65
2017-11-28 15:00:00 10.9 5 Noroeste 11 Norte 0 -- -- 62
2017-11-28 14:00:00 8.4 9 Norte 13 Norte 0 -- -- 69
2017-11-28 13:00:00 7 4 Norte 5 Norte 0 -- -- 75
2017-11-28 12:00:00 4.9 3 Norte 5 Norte 0 -- -- 79
2017-11-28 11:00:00 2.2 4 Norte 5 Norte 0 -- -- 86
2017-11-28 10:00:00 1.6 2 Sudeste 4 Sudeste 0 -- -- 85
2017-11-28 09:00:00 -3.3 2 Este 9 Norte 0 -- -- 93
2017-11-28 08:00:00 -2.8 3 Sur 5 Sur 0 -- -- 94
2017-11-28 07:00:00 -3.8 3 Sudeste 4 Sudeste 0 -- -- 95
2017-11-28 06:00:00 -3.3 2 Este 4 Norte 0 -- -- 95
2017-11-28 05:00:00 -2.5 0 Calma 5 Sur 0 -- -- 93
2017-11-28 04:00:00 -2.8 3 Sudeste 8 Sudeste 0 -- -- 93
2017-11-28 03:00:00 -3.2 6 Este 8 Este 0 -- -- 93
2017-11-28 02:00:00 -2.9 3 Sur 5 Sur 0 -- -- 92
2017-11-28 01:00:00 -1.4 3 Sur 8 Sur 0 -- -- 91
2017-11-28 00:00:00 -1.5 5 Sur 8 Sur 0 -- -- 94
2017-11-27 23:00:00 -1.1 0 Calma 10 Sur 0 -- -- 93
2017-11-27 22:00:00 0.6 6 Sur 12 Sur 0 -- -- 88
2017-11-27 21:00:00 1 6 Sur 8 Sur 0 -- -- 94
2017-11-27 20:00:00 1.5 2 Sur 5 Sur 0 -- -- 92
2017-11-27 19:00:00 2.4 2 Noroeste 8 Noroeste 0 -- -- 90
2017-11-27 18:00:00 4.3 6 Noroeste 8 Noroeste 0 -- -- 82
2017-11-27 17:00:00 8.7 5 Noroeste 7 Noroeste 0 -- -- 64
2017-11-27 16:00:00 10.4 4 Oeste 11 Norte 0 -- -- 54
2017-11-27 15:00:00 8.5 5 Norte 11 Norte 0 -- -- 60
2017-11-27 14:00:00 5.9 3 Oeste 8 Oeste 0 -- -- 72
2017-11-27 13:00:00 3.5 5 Noroeste 10 Noroeste 0 -- -- 86
2017-11-27 12:00:00 -0.8 4 Noroeste 10 Norte 0 -- -- 94
2017-11-27 11:00:00 -1.8 9 Norte 12 Norte 0 -- -- 89
2017-11-27 10:00:00 -1.7 2 Oeste 4 Sudoeste 0 -- -- 91
2017-11-27 09:00:00 -6.1 3 Sur 4 Sur 0 -- -- 95
2017-11-27 08:00:00 -6.3 2 Sur 5 Sur 0 -- -- 97
2017-11-27 07:00:00 -6.1 4 Sur 6 Sur 0 -- -- 97
2017-11-27 06:00:00 -6 2 Sudoeste 6 Sur 0 -- -- 97
2017-11-27 05:00:00 -5 2 Este 6 Norte 0 -- -- 98
2017-11-27 04:00:00 -3.5 5 Norte 8 Norte 0 -- -- 98
2017-11-27 03:00:00 -3.7 3 Sudoeste 5 Noroeste 0 -- -- 98
2017-11-27 02:00:00 -3.8 2 Norte 8 Norte 0 -- -- 97
2017-11-27 01:00:00 -2.7 5 Norte 8 Norte 0 -- -- 97
2017-11-27 00:00:00 -2 2 Sudeste 6 Sudeste 0 -- -- 96
2017-11-26 23:00:00 -1.4 7 Este 8 Este 0 -- -- 93
2017-11-26 22:00:00 -0.3 4 Nordeste 8 Nordeste 0 -- -- 93
2017-11-26 21:00:00 -0.1 0 Calma 7 Norte 0 -- -- 91
2017-11-26 20:00:00 1.6 4 Norte 6 Norte 0 -- -- 89
2017-11-26 19:00:00 5.9 9 Nordeste 13 Nordeste 0 -- -- 69
2017-11-26 18:00:00 6.3 7 Nordeste 10 Nordeste 0 -- -- 66
2017-11-26 17:00:00 9.6 5 Nordeste 17 Norte 0 -- -- 51
2017-11-26 16:00:00 9.9 8 Nordeste 19 Este 0 -- -- 50
2017-11-26 15:00:00 9.5 9 Nordeste 28 Nordeste 0 -- -- 52
2017-11-26 14:00:00 8.7 15 Nordeste 28 Nordeste 0 -- -- 56
2017-11-26 13:00:00 7.1 13 Nordeste 26 Nordeste 0 -- -- 66
2017-11-26 12:00:00 5.1 9 Nordeste 18 Norte 0 -- -- 79
2017-11-26 11:00:00 3.5 5 Norte 9 Norte 0 -- -- 80
2017-11-26 10:00:00 2.1 0 Calma 4 Sudeste 0 -- -- 88
2017-11-26 09:00:00 -2.2 2 Sur 4 Sudeste 0 -- -- 94
2017-11-26 08:00:00 -4.1 2 Oeste 4 Sur 0 -- -- 99
2017-11-26 07:00:00 -3.7 0 Calma 3 Sur 0 -- -- 98
2017-11-26 06:00:00 -3.2 0 Calma 3 Norte 0 -- -- 98
2017-11-26 05:00:00 -2.5 2 Sudoeste 3 Sudoeste 0 -- -- 98
2017-11-26 04:00:00 -2.1 3 Sudoeste 4 Sudoeste 0 -- -- 97
2017-11-26 03:00:00 -1.3 2 Sur 3 Este 0 -- -- 96
2017-11-26 02:00:00 0 4 Este 8 Nordeste 0 -- -- 94
2017-11-26 01:00:00 0.4 3 Sudeste 5 Nordeste 0 -- -- 94
2017-11-26 00:00:00 1.2 3 Este 10 Norte 0 -- -- 92
2017-11-25 23:00:00 2.5 8 Norte 13 Norte 0 -- -- 90
2017-11-25 22:00:00 3.6 5 Nordeste 17 Nordeste 0 -- -- 89
2017-11-25 21:00:00 5.1 10 Nordeste 14 Nordeste 0 -- -- 84
2017-11-25 20:00:00 6.5 11 Nordeste 15 Nordeste 0 -- -- 83
2017-11-25 19:00:00 7.7 9 Norte 14 Norte 0 -- -- 83
2017-11-25 18:00:00 9 9 Norte 20 Norte 0 -- -- 80
2017-11-25 17:00:00 9.5 15 Norte 26 Norte 0 -- -- 76
2017-11-25 16:00:00 10.4 18 Norte 26 Norte 0 -- -- 73
2017-11-25 15:00:00 10.4 19 Norte 25 Norte 0.2 -- -- 77
2017-11-25 14:00:00 10.8 14 Nordeste 28 Nordeste 0 -- -- 76
2017-11-25 13:00:00 10.6 21 Nordeste 28 Nordeste 0 -- -- 77
2017-11-25 12:00:00 10.3 16 Nordeste 27 Nordeste 0 -- -- 85
2017-11-25 11:00:00 9.8 11 Norte 16 Norte 0 -- -- 92
2017-11-25 10:00:00 10 8 Noroeste 14 Noroeste 0.2 -- -- 94
2017-11-25 09:00:00 9.8 10 Noroeste 13 Noroeste 0 -- -- 95
2017-11-25 08:00:00 9.7 9 Sudoeste 17 Oeste 0 -- -- 92
2017-11-25 07:00:00 9.8 13 Oeste 23 Sudoeste 0 -- -- 89
2017-11-25 06:00:00 10 15 Sudoeste 24 Sudoeste 0.6 -- -- 90
2017-11-25 05:00:00 10.3 17 Sudoeste 31 Sudoeste 0.6 -- -- 91
2017-11-25 04:00:00 11 21 Sudoeste 48 Sudoeste 0 -- -- 86
2017-11-25 03:00:00 11 23 Sudoeste 35 Sudoeste 0 -- -- 86
2017-11-25 02:00:00 10.7 22 Sudoeste 32 Sudoeste 0 -- -- 85
2017-11-25 01:00:00 10.3 14 Sur 25 Sur 0 -- -- 84
2017-11-25 00:00:00 11.2 19 Sur 32 Sudoeste 0 -- -- 80
2017-11-24 23:00:00 11.6 17 Sudoeste 30 Sudoeste 0 -- -- 78
2017-11-24 22:00:00 11.4 18 Sur 27 Sur 0 -- -- 85
2017-11-24 21:00:00 12 15 Sur 26 Sur 0 -- -- 85
2017-11-24 20:00:00 12.1 16 Sudoeste 22 Sudoeste 0.2 -- -- 86
2017-11-24 19:00:00 11.7 11 Sudoeste 32 Sudoeste 0 -- -- 89
2017-11-24 18:00:00 12.7 19 Sudoeste 35 Sudoeste 0 -- -- 80
2017-11-24 17:00:00 13.2 22 Sudoeste 48 Sudoeste 0 -- -- 85
2017-11-24 16:00:00 14.6 25 Sudoeste 41 Sudoeste 0 -- -- 79
2017-11-24 15:00:00 14.9 27 Sudoeste 43 Sudoeste 0 -- -- 77
2017-11-24 14:00:00 14.5 23 Sudoeste 41 Sudoeste 0 -- -- 81
2017-11-24 13:00:00 14.4 28 Sudoeste 36 Sudoeste 0 -- -- 84
2017-11-24 12:00:00 12.6 17 Sudoeste 26 Sudoeste 0 -- -- 90
2017-11-24 11:00:00 11.1 5 Sur 11 Sur 0.2 -- -- 96
2017-11-24 10:00:00 10.7 6 Sur 23 Sudoeste 0.2 -- -- 95
2017-11-24 09:00:00 11 17 Sudoeste 24 Sudoeste 0 -- -- 91
2017-11-24 08:00:00 10.9 18 Sudoeste 41 Sur 0 -- -- 89
2017-11-24 07:00:00 10.4 23 Sudoeste 34 Sudoeste 0 -- -- 87
2017-11-24 06:00:00 10.4 22 Sudoeste 32 Sur 0 -- -- 84
2017-11-24 05:00:00 10.1 13 Sudoeste 29 Sudoeste 0 -- -- 88
2017-11-24 04:00:00 10.2 17 Sur 25 Sur 0 -- -- 85
2017-11-24 03:00:00 9.2 6 Oeste 21 Sudeste 0 -- -- 86
2017-11-24 02:00:00 10 12 Sudeste 21 Sudeste 0 -- -- 82
2017-11-24 01:00:00 9.9 14 Sudeste 19 Sudeste 0.2 -- -- 83
2017-11-24 00:00:00 9.7 13 Sur 34 Sudoeste 1.6 -- -- 87
2017-11-23 23:00:00 13.1 21 Sur 41 Sur 0 -- -- 53
2017-11-23 22:00:00 12.6 18 Sur 24 Sur 0 -- -- 43
2017-11-23 21:00:00 11.5 10 Sur 17 Sudeste 0 -- -- 43
2017-11-23 20:00:00 12.1 10 Sudeste 12 Sudeste 0 -- -- 42
2017-11-23 19:00:00 12.7 6 Sudeste 12 Sudeste 0 -- -- 42
2017-11-23 18:00:00 14.7 12 Sudoeste 21 Sudoeste 0 -- -- 36
2017-11-23 17:00:00 16.1 21 Sudoeste 42 Sudoeste 0 -- -- 37
2017-11-23 16:00:00 17.2 32 Sudoeste 61 Sudoeste 0 -- -- 35
2017-11-23 15:00:00 17.5 36 Sudoeste 50 Sudoeste 0 -- -- 38
2017-11-23 14:00:00 17.2 33 Sudoeste 46 Sudoeste 0 -- -- 45
2017-11-23 13:00:00 16.8 33 Sudoeste 48 Sudoeste 0 -- -- 53
2017-11-23 12:00:00 15.6 30 Sudoeste 43 Sudoeste 0 -- -- 59
2017-11-23 11:00:00 14.6 23 Sudoeste 37 Sur 0 -- -- 62
2017-11-23 10:00:00 13.3 24 Sur 35 Sur 0 -- -- 66
2017-11-23 09:00:00 12.3 22 Sur 32 Sur 0 -- -- 67
2017-11-23 08:00:00 12.3 20 Sur 35 Sur 0 -- -- 64
2017-11-23 07:00:00 12.4 25 Sur 33 Sur 0 -- -- 56
2017-11-23 06:00:00 11.6 17 Sur 23 Sur 0 -- -- 50
2017-11-23 05:00:00 11.9 13 Sur 22 Sur 0 -- -- 47
2017-11-23 04:00:00 12.2 15 Sur 32 Sur 0 -- -- 45
2017-11-23 03:00:00 12.8 22 Sur 31 Sur 0 -- -- 44
2017-11-23 02:00:00 11.5 15 Sur 30 Sur 0 -- -- 45
2017-11-23 01:00:00 12.9 23 Sur 33 Sur 0 -- -- 41
2017-11-23 00:00:00 12.8 25 Sur 35 Sur 0 -- -- 39
2017-11-22 23:00:00 11.7 13 Sur 24 Sur 0 -- -- 40
2017-11-22 22:00:00 10.1 12 Sudeste 17 Sudeste 0 -- -- 43
2017-11-22 21:00:00 11 6 Este 14 Sudeste 0 -- -- 40
2017-11-22 20:00:00 12.9 10 Sur 16 Sur 0 -- -- 38
2017-11-22 19:00:00 13.2 11 Sudoeste 28 Sur 0 -- -- 39
2017-11-22 18:00:00 14.1 14 Sudoeste 30 Sudoeste 0 -- -- 37
2017-11-22 17:00:00 16.2 23 Sudoeste 44 Sudoeste 0 -- -- 33
2017-11-22 16:00:00 18.3 35 Sudoeste 47 Sudoeste 0 -- -- 29
2017-11-22 15:00:00 18.8 30 Sudoeste 50 Sudoeste 0 -- -- 26
2017-11-22 14:00:00 20.2 29 Sudoeste 41 Sudoeste 0 -- -- 26
2017-11-22 13:00:00 20.2 4 Noroeste 9 Norte 0 -- -- 27
2017-11-22 12:00:00 15.6 6 Este 11 Nordeste 0 -- -- 33
2017-11-22 11:00:00 11.7 4 Nordeste 9 Sudeste 0 -- -- 38
2017-11-22 10:00:00 6.3 3 Sur 10 Noroeste 0 -- -- 51
2017-11-22 09:00:00 2.9 4 Oeste 10 Sudeste 0 -- -- 58
2017-11-22 08:00:00 -0.5 6 Sudeste 14 Sur 0 -- -- 64
2017-11-22 07:00:00 -0.3 2 Sudeste 8 Sudeste 0 -- -- 64
2017-11-22 06:00:00 -1.3 4 Sur 5 Sur 0 -- -- 71
2017-11-22 05:00:00 0.5 2 Sudeste 8 Sur 0 -- -- 64
2017-11-22 04:00:00 1.1 4 Sur 12 Sur 0 -- -- 63
2017-11-22 03:00:00 2.1 6 Sudeste 14 Sudeste 0 -- -- 61
2017-11-22 02:00:00 1.6 5 Sudeste 12 Sudeste 0 -- -- 63
2017-11-22 01:00:00 0.9 2 Sur 15 Sur 0 -- -- 68
2017-11-22 00:00:00 3.2 12 Sur 21 Sur 0 -- -- 60
2017-11-21 23:00:00 4.6 8 Sur 12 Sur 0 -- -- 57
2017-11-21 22:00:00 6 14 Sur 16 Sudeste 0 -- -- 52
2017-11-21 21:00:00 4.9 9 Sur 13 Sur 0 -- -- 50
2017-11-21 20:00:00 6.9 5 Sur 12 Este 0 -- -- 49
2017-11-21 19:00:00 8.7 5 Nordeste 10 Este 0 -- -- 42
2017-11-21 18:00:00 12.8 5 Nordeste 12 Norte 0 -- -- 36
2017-11-21 17:00:00 16.4 9 Norte 11 Norte 0 -- -- 30
2017-11-21 16:00:00 17.4 6 Norte 15 Norte 0 -- -- 29
2017-11-21 15:00:00 19.9 3 Oeste 8 Noroeste 0 -- -- 25
2017-11-21 14:00:00 18.8 4 Oeste 9 Sudoeste 0 -- -- 27
2017-11-21 13:00:00 17.8 2 Sudoeste 6 Oeste 0 -- -- 28
2017-11-21 12:00:00 15.1 2 Sudeste 5 Sudeste 0 -- -- 30
2017-11-21 11:00:00 9.7 4 Sudeste 8 Sur 0 -- -- 41
2017-11-21 10:00:00 4.7 5 Sudeste 9 Sur 0 -- -- 57
2017-11-21 09:00:00 -0.8 5 Sur 7 Sur 0 -- -- 74
2017-11-21 08:00:00 -3 3 Sur 5 Sur 0 -- -- 79
2017-11-21 07:00:00 -2.8 5 Sur 8 Sur 0 -- -- 80
2017-11-21 06:00:00 -3.7 4 Sudoeste -- -- 0 -- -- 84
2017-11-21 05:00:00 -0.3 5 Sudeste 7 Sudeste 0 -- -- 72
2017-11-21 04:00:00 -1 2 Sur 11 Sudeste 0 -- -- 74
2017-11-21 03:00:00 -0.2 4 Sudeste 7 Sudeste 0 -- -- 71
2017-11-21 02:00:00 -1.7 0 Calma 5 Sur 0 -- -- 76
2017-11-21 01:00:00 -0.3 3 Este 4 Sudeste 0 -- -- 68
2017-11-21 00:00:00 0.6 0 Calma 5 Sur 0 -- -- 67
2017-11-20 23:00:00 0.8 5 Sur 8 Sur 0 -- -- 66
2017-11-20 22:00:00 1.1 3 Sur 7 Sur 0 -- -- 65
2017-11-20 21:00:00 2.4 3 Sur 5 Sur 0 -- -- 59
2017-11-20 20:00:00 3.6 2 Sudoeste 2 Sudoeste 0 -- -- 56
2017-11-20 19:00:00 6.4 0 Calma 2 Noroeste 0 -- -- 52
2017-11-20 18:00:00 11.9 0 Calma 4 Norte 0 -- -- 34
2017-11-20 17:00:00 17.4 2 Norte 7 Este 0 -- -- 24
2017-11-20 16:00:00 17.1 5 Este 10 Norte 0 -- -- 23
2017-11-20 15:00:00 16.2 5 Nordeste 11 Nordeste 0 -- -- 29
2017-11-20 14:00:00 14.3 6 Norte 10 Norte 0 -- -- 37
2017-11-20 13:00:00 12.4 4 Norte 9 Norte 0 -- -- 48
2017-11-20 12:00:00 12.2 3 Oeste 5 Oeste 0 -- -- 49
2017-11-20 11:00:00 8.9 0 Calma 5 Sur 0 -- -- 59
2017-11-20 10:00:00 4.6 0 Calma 4 Sur 0 -- -- 70
2017-11-20 09:00:00 -1.9 3 Sudeste 4 Sur 0 -- -- 83
2017-11-20 08:00:00 -5.4 2 Norte 4 Sudeste 0 -- -- 89
2017-11-20 07:00:00 -3.5 3 Sudeste 7 Sudeste 0 -- -- 91
2017-11-20 06:00:00 -4 2 Sur 4 Sur 0 -- -- 91
2017-11-20 05:00:00 -3.3 0 Calma 3 Sur 0 -- -- 93
2017-11-20 04:00:00 -3.9 0 Calma 3 Sudoeste 0 -- -- 92
2017-11-20 03:00:00 -3.6 -- -- -- -- 0 -- -- 89
2017-11-20 02:00:00 -2.6 3 Sur 4 Sur 0 -- -- 89
2017-11-20 01:00:00 -2 3 Noroeste 5 Noroeste 0 -- -- 88
2017-11-20 00:00:00 -0.2 0 Calma 2 Norte 0 -- -- 87
2017-11-19 23:00:00 0.2 0 Calma 7 Sur 0 -- -- 86
2017-11-19 22:00:00 0.7 6 Sur 6 Sur 0 -- -- 83
2017-11-19 21:00:00 1.4 3 Sur -- -- 0 -- -- 81
2017-11-19 20:00:00 2.4 3 Sudoeste 4 Sudoeste 0 -- -- 80
2017-11-19 19:00:00 5.2 2 Sudoeste 6 Noroeste 0 -- -- 66
2017-11-19 18:00:00 10 5 Noroeste 9 Noroeste 0 -- -- 55
2017-11-19 17:00:00 14.2 7 Noroeste 10 Noroeste 0 -- -- 46
2017-11-19 16:00:00 16 6 Noroeste 10 Noroeste 0 -- -- 42
2017-11-19 15:00:00 15.2 5 Noroeste 10 Noroeste 0 -- -- 43
2017-11-19 14:00:00 12.6 5 Noroeste 10 Oeste 0 -- -- 51
2017-11-19 13:00:00 9.4 4 Noroeste 10 Noroeste 0 -- -- 60
2017-11-19 12:00:00 5 3 Norte 5 Norte 0 -- -- 91
2017-11-19 11:00:00 0.7 0 Calma 2 Sudoeste 0 -- -- 94
2017-11-19 10:00:00 -1.4 0 Calma -- -- 0 -- -- 96
2017-11-19 09:00:00 -2.5 0 Calma -- -- 0 -- -- 98
2017-11-19 08:00:00 -2.7 2 Sur 4 Sur 0 -- -- 98
2017-11-19 07:00:00 -4.5 2 Sudoeste 4 Sudoeste 0 -- -- 97
2017-11-19 06:00:00 -4.6 3 Sudoeste 6 Sudoeste 0 -- -- 95
2017-11-19 05:00:00 -4.9 0 Calma 4 Sudoeste 0 -- -- 92
2017-11-19 04:00:00 -4.4 3 Sudoeste 3 Sudoeste 0 -- -- 92
2017-11-19 03:00:00 -3.5 0 Calma 3 Oeste 0 -- -- 87
2017-11-19 02:00:00 -2.7 3 Oeste 4 Oeste 0 -- -- 88
2017-11-19 01:00:00 -1.4 2 Sudeste 4 Sur 0 -- -- 85
2017-11-19 00:00:00 -1 0 Calma 4 Sudeste 0 -- -- 84
2017-11-18 23:00:00 1 5 Sudeste 9 Sudeste 0 -- -- 76
2017-11-18 22:00:00 1.6 3 Nordeste 6 Nordeste 0 -- -- 72
2017-11-18 21:00:00 4 0 Calma 9 Norte 0 -- -- 68
2017-11-18 20:00:00 7.3 7 Norte 9 Norte 0 -- -- 61
2017-11-18 19:00:00 7.3 0 Calma 6 Sudoeste 0 -- -- 58
2017-11-18 18:00:00 11.6 4 Sudoeste 6 Sudoeste 0 -- -- 48
2017-11-18 17:00:00 18.2 0 Calma 8 Nordeste 0 -- -- 35
2017-11-18 16:00:00 16.3 5 Norte 12 Norte 0 -- -- 38
2017-11-18 15:00:00 14.5 7 Norte 15 Nordeste 0 -- -- 42
2017-11-18 14:00:00 13.3 7 Norte 14 Norte 0 -- -- 44
2017-11-18 13:00:00 11.2 5 Norte 9 Norte 0 -- -- 49
2017-11-18 12:00:00 9.4 4 Norte 9 Norte 0 -- -- 54
2017-11-18 11:00:00 6.5 3 Norte 6 Nordeste 0 -- -- 63
2017-11-18 10:00:00 4.3 0 Calma 4 Este 0 -- -- 68
2017-11-18 09:00:00 0.8 3 Norte 5 Norte 0 -- -- 83
2017-11-18 08:00:00 -3 3 Sudoeste -- -- 0 -- -- 93
2017-11-18 07:00:00 -2.5 3 Sudeste 5 Oeste 0 -- -- 89
2017-11-18 06:00:00 -1.9 3 Oeste -- -- 0 -- -- 92
2017-11-18 05:00:00 -2 3 Sudoeste 4 Sudoeste 0 -- -- 89
2017-11-18 04:00:00 -1.5 0 Calma 3 Sur 0 -- -- 88
2017-11-18 03:00:00 -0.1 2 Sur 2 Sur 0 -- -- 83
2017-11-18 02:00:00 0.8 0 Calma 3 Sudoeste 0 -- -- 80
2017-11-18 01:00:00 1.4 2 Sudoeste 3 Sur 0 -- -- 80
2017-11-18 00:00:00 1.6 2 Sudoeste 9 Sur 0 -- -- 78
2017-11-17 23:00:00 3 5 Sudeste 8 Sur 0 -- -- 74
2017-11-17 22:00:00 3.7 4 Sur 6 Sur 0 -- -- 70
2017-11-17 21:00:00 4.6 5 Sur 6 Sur 0 -- -- 70
2017-11-17 20:00:00 5.4 3 Sudoeste 4 Sudoeste 0 -- -- 66
2017-11-17 19:00:00 9.5 0 Calma 3 Norte 0 -- -- 53
2017-11-17 18:00:00 13.5 3 Noroeste -- -- 0 -- -- 41
2017-11-17 17:00:00 15.3 6 Noroeste 10 Noroeste 0 -- -- 37
2017-11-17 16:00:00 15.6 8 Noroeste 13 Noroeste 0 -- -- 36
2017-11-17 15:00:00 16 8 Noroeste 11 Noroeste 0 -- -- 36
2017-11-17 14:00:00 14.1 5 Noroeste 11 Noroeste 0 -- -- 40
2017-11-17 13:00:00 13.8 5 Noroeste 11 Oeste 0 -- -- 42
2017-11-17 12:00:00 11.3 4 Oeste 8 Oeste 0 -- -- 48
2017-11-17 11:00:00 8.5 4 Noroeste 7 Noroeste 0 -- -- 57
2017-11-17 10:00:00 6.5 2 Noroeste 5 Noroeste 0 -- -- 62
2017-11-17 09:00:00 3 0 Calma 4 Sur 0 -- -- 70
2017-11-17 08:00:00 -2.1 0 Calma 2 Sur 0 -- -- 88
2017-11-17 07:00:00 -2.1 0 Calma 3 Sur 0 -- -- 86
2017-11-17 06:00:00 -2.3 3 Sur 4 Sur 0 -- -- 86
2017-11-17 05:00:00 -1.6 4 Sur 4 Sur 0 -- -- 84
2017-11-17 04:00:00 -1.1 4 Este 4 Sudeste 0 -- -- 81
2017-11-17 03:00:00 -1 2 Sudoeste 4 Sur 0 -- -- 82
2017-11-17 02:00:00 0.3 3 Sur 4 Sur 0 -- -- 77
2017-11-17 01:00:00 0.8 2 Sudoeste -- -- 0 -- -- 74
2017-11-17 00:00:00 1.1 6 Sudoeste 8 Sudoeste 0 -- -- 75